createdAt,value
2023-02-23T00:00:28.727Z,99.90
2023-02-23T00:02:59.268Z,99.90
2023-02-23T00:05:27.242Z,99.90
2023-02-23T00:07:54.694Z,99.90
2023-02-23T00:10:25.519Z,99.90
2023-02-23T00:12:52.485Z,99.90
2023-02-23T00:15:19.544Z,99.90
2023-02-23T00:17:47.929Z,99.90
2023-02-23T00:20:16.725Z,99.90
2023-02-23T00:22:43.721Z,99.90
2023-02-23T00:25:15.226Z,99.90
2023-02-23T00:27:46.111Z,99.90
2023-02-23T00:30:14.735Z,99.90
2023-02-23T00:32:41.882Z,99.90
2023-02-23T00:35:17.356Z,99.90
2023-02-23T00:37:46.249Z,99.90
2023-02-23T00:40:16.640Z,99.90
2023-02-23T00:42:48.139Z,99.90
2023-02-23T00:45:15.604Z,99.90
2023-02-23T00:47:44.659Z,99.90
2023-02-23T00:50:16.282Z,99.90
2023-02-23T00:52:44.114Z,99.90
2023-02-23T00:55:15.306Z,99.90
2023-02-23T00:57:42.164Z,99.90
2023-02-23T01:00:18.802Z,99.90
2023-02-23T01:02:47.510Z,99.90
2023-02-23T01:05:14.689Z,99.90
2023-02-23T01:07:41.539Z,99.90
2023-02-23T01:10:21.248Z,99.90
2023-02-23T01:12:50.482Z,99.90
2023-02-23T01:15:18.640Z,99.90
2023-02-23T01:17:45.605Z,99.90
2023-02-23T01:20:19.270Z,99.90
2023-02-23T01:22:49.444Z,99.90
2023-02-23T01:25:17.460Z,99.90
2023-02-23T01:27:44.841Z,99.90
2023-02-23T01:30:15.055Z,99.90
2023-02-23T01:32:43.745Z,99.90
2023-02-23T01:35:12.682Z,99.90
2023-02-23T01:37:41.766Z,99.90
2023-02-23T01:40:16.447Z,99.90
2023-02-23T01:42:46.297Z,99.90
2023-02-23T01:45:23.745Z,99.90
2023-02-23T01:47:53.200Z,99.90
2023-02-23T01:50:22.821Z,99.90
2023-02-23T01:52:52.118Z,99.90
2023-02-23T01:55:24.422Z,99.90
2023-02-23T01:57:56.360Z,99.90
2023-02-23T02:00:26.573Z,99.90
2023-02-23T02:02:53.853Z,99.90
2023-02-23T02:05:21.159Z,99.90
2023-02-23T02:07:58.701Z,99.90
2023-02-23T02:10:39.924Z,99.90
2023-02-23T02:13:15.085Z,99.90
2023-02-23T02:16:18.147Z,99.90
2023-02-23T02:18:59.790Z,99.90
2023-02-23T02:21:56.787Z,99.90
2023-02-23T02:24:48.120Z,99.90
2023-02-23T02:27:43.589Z,99.90
2023-02-23T02:31:02.056Z,99.90
2023-02-23T02:34:14.055Z,99.90
2023-02-23T02:36:59.842Z,99.90
2023-02-23T02:40:15.202Z,99.90
2023-02-23T02:43:08.643Z,99.90
2023-02-23T02:45:45.150Z,99.90
2023-02-23T02:48:18.320Z,99.90
2023-02-23T02:51:00.870Z,99.90
2023-02-23T02:53:47.055Z,99.90
2023-02-23T02:56:19.910Z,99.90
2023-02-23T02:58:50.321Z,99.90
2023-02-23T03:01:38.147Z,99.90
2023-02-23T03:04:42.887Z,99.90
2023-02-23T03:07:42.872Z,99.90
2023-02-23T03:10:51.575Z,99.90
2023-02-23T03:14:00.330Z,99.90
2023-02-23T03:16:59.160Z,99.90
2023-02-23T03:20:04.793Z,99.90
2023-02-23T03:23:00.690Z,99.90
2023-02-23T03:26:00.458Z,99.90
2023-02-23T03:28:52.099Z,99.90
2023-02-23T03:32:02.707Z,99.90
2023-02-23T03:34:59.349Z,99.90
2023-02-23T03:38:04.446Z,99.90
2023-02-23T03:40:57.644Z,99.90
2023-02-23T03:43:55.546Z,99.90
2023-02-23T03:46:43.231Z,99.90
2023-02-23T03:49:30.105Z,99.90
2023-02-23T03:52:24.523Z,99.90
2023-02-23T03:55:24.656Z,99.90
2023-02-23T03:58:13.125Z,99.90
2023-02-23T04:01:03.952Z,99.90
2023-02-23T04:03:53.113Z,99.90
2023-02-23T04:06:42.001Z,99.90
2023-02-23T04:09:27.721Z,99.90
2023-02-23T04:12:25.831Z,99.90
2023-02-23T04:15:12.792Z,99.90
2023-02-23T04:17:40.289Z,99.90
2023-02-23T04:20:08.935Z,99.90
2023-02-23T04:22:35.967Z,99.90
2023-02-23T04:25:03.087Z,99.90
2023-02-23T04:27:30.126Z,99.90
2023-02-23T04:29:57.011Z,99.90
2023-02-23T04:32:24.180Z,99.90
2023-02-23T04:34:51.180Z,99.90
2023-02-23T04:37:18.100Z,99.90
2023-02-23T04:39:49.658Z,99.90
2023-02-23T04:42:17.567Z,99.90
2023-02-23T04:44:45.220Z,99.90
2023-02-23T04:47:14.118Z,99.90
2023-02-23T04:49:41.057Z,99.90
2023-02-23T04:52:07.827Z,99.90
2023-02-23T04:54:38.894Z,99.90
2023-02-23T04:57:06.808Z,99.90
2023-02-23T04:59:33.892Z,99.90
2023-02-23T05:02:00.740Z,99.90
2023-02-23T05:04:27.752Z,99.90
2023-02-23T05:06:54.695Z,99.90
2023-02-23T05:09:21.617Z,99.90
2023-02-23T05:11:48.579Z,99.90
2023-02-23T05:14:15.516Z,99.90
2023-02-23T05:16:42.383Z,99.90
2023-02-23T05:19:09.392Z,99.90
2023-02-23T05:21:36.262Z,99.90
2023-02-23T05:24:03.220Z,99.90
2023-02-23T05:26:30.320Z,99.90
2023-02-23T05:28:57.277Z,99.90
2023-02-23T05:31:24.997Z,99.90
2023-02-23T05:33:52.638Z,99.90
2023-02-23T05:36:20.891Z,99.90
2023-02-23T05:38:49.107Z,99.90
2023-02-23T05:41:19.449Z,99.90
2023-02-23T05:43:47.398Z,99.90
2023-02-23T05:46:20.731Z,99.90
2023-02-23T05:48:47.853Z,99.90
2023-02-23T05:51:16.250Z,99.90
2023-02-23T05:53:44.410Z,99.90
2023-02-23T05:56:14.494Z,99.90
2023-02-23T05:58:41.449Z,99.90
2023-02-23T06:01:08.356Z,99.90
2023-02-23T06:03:35.679Z,99.90
2023-02-23T06:06:02.629Z,99.90
2023-02-23T06:08:29.469Z,99.90
2023-02-23T06:10:56.322Z,99.90
2023-02-23T06:13:23.380Z,99.90
2023-02-23T06:15:50.360Z,99.90
2023-02-23T06:18:17.732Z,99.90
2023-02-23T06:20:46.270Z,99.90
2023-02-23T06:23:14.050Z,99.90
2023-02-23T06:25:41.540Z,99.90
2023-02-23T06:28:08.919Z,99.90
2023-02-23T06:30:36.975Z,99.90
2023-02-23T06:33:04.103Z,99.90
2023-02-23T06:35:32.463Z,99.90
2023-02-23T06:38:00.297Z,99.90
2023-02-23T06:40:28.765Z,99.90
2023-02-23T06:42:55.800Z,99.90
2023-02-23T06:45:22.951Z,99.90
2023-02-23T06:47:49.944Z,99.90
2023-02-23T06:50:17.255Z,99.90
2023-02-23T06:52:44.115Z,99.90
2023-02-23T06:55:10.991Z,99.90
2023-02-23T06:57:38.394Z,99.90
2023-02-23T07:00:05.915Z,99.90
2023-02-23T07:02:32.794Z,99.90
2023-02-23T07:04:59.756Z,99.90
2023-02-23T07:07:26.624Z,99.90
2023-02-23T07:09:53.491Z,99.90
2023-02-23T07:12:21.149Z,99.90
2023-02-23T07:14:48.011Z,99.90
2023-02-23T07:17:14.839Z,99.90
2023-02-23T07:19:41.902Z,99.90
2023-02-23T07:22:08.894Z,99.90
2023-02-23T07:24:35.889Z,99.90
2023-02-23T07:27:02.849Z,99.90
2023-02-23T07:29:29.803Z,99.90
2023-02-23T07:31:56.790Z,99.90
2023-02-23T07:34:23.954Z,99.90
2023-02-23T07:36:51.059Z,99.90
2023-02-23T07:39:17.997Z,99.90
2023-02-23T07:41:44.881Z,99.90
2023-02-23T07:44:19.136Z,99.90
2023-02-23T07:46:46.521Z,99.90
2023-02-23T07:49:13.967Z,99.90
2023-02-23T07:51:41.587Z,99.90
2023-02-23T07:54:08.388Z,99.90
2023-02-23T07:56:35.610Z,99.90
2023-02-23T07:59:03.767Z,99.90
2023-02-23T08:01:31.046Z,99.90
2023-02-23T08:03:58.024Z,99.90
2023-02-23T08:06:25.010Z,99.90
2023-02-23T08:08:52.068Z,99.90
2023-02-23T08:11:19.516Z,99.90
2023-02-23T08:13:46.505Z,99.90
2023-02-23T08:16:13.548Z,99.90
2023-02-23T08:18:40.559Z,99.90
2023-02-23T08:21:07.777Z,99.90
2023-02-23T08:23:35.575Z,99.90
2023-02-23T08:26:03.089Z,99.90
2023-02-23T08:28:31.363Z,99.90
2023-02-23T08:30:59.409Z,99.90
2023-02-23T08:33:26.796Z,99.90
2023-02-23T08:35:54.067Z,99.90
2023-02-23T08:38:21.042Z,99.90
2023-02-23T08:40:48.058Z,99.90
2023-02-23T08:43:16.292Z,99.90
2023-02-23T08:45:43.231Z,99.90
2023-02-23T08:48:10.308Z,99.90
2023-02-23T08:50:37.321Z,99.90
2023-02-23T08:53:05.390Z,99.90
2023-02-23T08:55:35.641Z,99.90
2023-02-23T08:58:02.437Z,99.90
2023-02-23T09:00:29.400Z,99.90
2023-02-23T09:02:56.242Z,99.90
2023-02-23T09:05:23.250Z,99.90
2023-02-23T09:07:50.942Z,99.90
2023-02-23T09:10:20.193Z,99.90
2023-02-23T09:12:47.140Z,99.70
2023-02-23T09:15:14.014Z,99.30
2023-02-23T09:17:44.890Z,99.00
2023-02-23T09:20:13.677Z,99.00
2023-02-23T09:22:50.475Z,99.00
2023-02-23T09:25:24.667Z,98.70
2023-02-23T09:27:53.699Z,98.40
2023-02-23T09:30:21.497Z,98.10
2023-02-23T09:32:49.528Z,98.10
2023-02-23T09:35:18.009Z,98.20
2023-02-23T09:37:50.361Z,97.90
2023-02-23T09:40:22.004Z,97.50
2023-02-23T09:43:12.059Z,97.20
2023-02-23T09:45:42.891Z,96.60
2023-02-23T09:48:09.905Z,96.00
2023-02-23T09:50:40.088Z,96.20
2023-02-23T09:53:15.662Z,95.90
2023-02-23T09:55:44.600Z,95.50
2023-02-23T09:58:38.558Z,94.70
2023-02-23T10:01:29.606Z,94.30
2023-02-23T10:04:23.140Z,94.00
2023-02-23T10:07:12.961Z,92.80
2023-02-23T10:10:12.939Z,93.30
2023-02-23T10:12:56.271Z,93.60
2023-02-23T10:15:58.414Z,93.30
2023-02-23T10:18:47.306Z,93.30
2023-02-23T10:21:35.590Z,93.00
2023-02-23T10:24:10.076Z,92.70
2023-02-23T10:27:00.603Z,92.70
2023-02-23T10:29:32.904Z,92.50
2023-02-23T10:32:07.722Z,92.40
2023-02-23T10:34:36.886Z,92.70
2023-02-23T10:37:06.735Z,92.10
2023-02-23T10:39:34.606Z,92.10
2023-02-23T10:42:07.879Z,91.80
2023-02-23T10:44:35.058Z,91.80
2023-02-23T10:47:03.213Z,91.10
2023-02-23T10:49:43.462Z,91.00
2023-02-23T10:52:20.583Z,90.90
2023-02-23T10:54:52.078Z,90.80
2023-02-23T10:57:32.455Z,90.70
2023-02-23T11:00:20.406Z,90.30
2023-02-23T11:02:48.229Z,90.20
2023-02-23T11:05:29.338Z,88.20
2023-02-23T11:08:26.163Z,87.80
2023-02-23T11:11:09.715Z,89.00
2023-02-23T11:13:43.079Z,89.30
2023-02-23T11:16:22.068Z,88.50
2023-02-23T11:18:51.521Z,85.60
2023-02-23T11:21:38.461Z,87.00
2023-02-23T11:24:27.217Z,85.10
2023-02-23T11:27:00.371Z,83.00
2023-02-23T11:29:36.631Z,84.50
2023-02-23T11:32:31.590Z,83.40
2023-02-23T11:35:19.404Z,81.40
2023-02-23T11:37:46.958Z,79.90
2023-02-23T11:40:32.092Z,79.80
2023-02-23T11:43:14.698Z,79.80
2023-02-23T11:45:50.464Z,77.90
2023-02-23T11:48:31.340Z,77.60
2023-02-23T11:50:58.833Z,75.70
2023-02-23T11:53:35.051Z,74.80
2023-02-23T11:56:11.165Z,74.20
2023-02-23T11:58:51.345Z,73.40
2023-02-23T12:01:34.618Z,74.60
2023-02-23T12:04:02.137Z,72.60
2023-02-23T12:06:31.856Z,73.40
2023-02-23T12:09:25.207Z,73.10
2023-02-23T12:12:01.376Z,73.30
2023-02-23T12:14:51.463Z,72.60
2023-02-23T12:17:27.773Z,71.30
2023-02-23T12:20:03.157Z,72.00
2023-02-23T12:22:39.507Z,72.00
2023-02-23T12:25:37.250Z,72.70
2023-02-23T12:28:18.534Z,70.80
2023-02-23T12:30:55.253Z,71.50
2023-02-23T12:33:30.174Z,70.30
2023-02-23T12:36:09.135Z,71.60
2023-02-23T12:38:44.851Z,70.90
2023-02-23T12:41:13.823Z,70.10
2023-02-23T12:43:51.370Z,69.00
2023-02-23T12:46:35.510Z,69.00
2023-02-23T12:49:35.388Z,69.70
2023-02-23T12:52:25.872Z,68.50
2023-02-23T12:54:53.678Z,67.20
2023-02-23T12:57:23.879Z,68.30
2023-02-23T13:00:10.076Z,67.40
2023-02-23T13:02:48.578Z,66.60
2023-02-23T13:05:28.608Z,66.80
2023-02-23T13:08:33.706Z,67.30
2023-02-23T13:11:44.809Z,66.20
2023-02-23T13:14:36.432Z,64.90
2023-02-23T13:17:25.883Z,65.40
2023-02-23T13:20:01.629Z,65.60
2023-02-23T13:22:46.226Z,66.60
2023-02-23T13:25:45.974Z,65.30
2023-02-23T13:28:43.362Z,65.00
2023-02-23T13:31:25.465Z,65.90
2023-02-23T13:33:55.858Z,66.20
2023-02-23T13:36:23.594Z,65.10
2023-02-23T13:39:32.119Z,64.30
2023-02-23T13:42:23.150Z,65.10
2023-02-23T13:45:02.060Z,64.60
2023-02-23T13:50:56.922Z,64.00
2023-02-23T13:53:57.910Z,64.00
2023-02-23T13:56:28.175Z,64.80
2023-02-23T13:58:58.955Z,64.30
2023-02-23T14:01:36.543Z,64.10
2023-02-23T14:04:12.789Z,62.20
2023-02-23T14:06:51.128Z,61.30
2023-02-23T14:09:23.803Z,63.30
2023-02-23T14:12:05.116Z,62.60
2023-02-23T14:14:32.333Z,64.10
2023-02-23T14:17:12.067Z,64.10
2023-02-23T14:19:45.625Z,65.50
2023-02-23T14:22:22.210Z,64.60
2023-02-23T14:25:26.759Z,65.10
2023-02-23T14:28:02.090Z,65.10
2023-02-23T14:30:43.630Z,65.20
2023-02-23T14:33:36.207Z,65.60
2023-02-23T14:36:25.895Z,65.90
2023-02-23T14:39:00.408Z,65.60
2023-02-23T14:41:50.215Z,66.60
2023-02-23T14:44:31.572Z,65.40
2023-02-23T14:47:13.003Z,66.00
2023-02-23T14:49:47.511Z,66.90
2023-02-23T14:52:21.337Z,66.50
2023-02-23T14:54:48.825Z,66.60
2023-02-23T14:57:22.027Z,67.30
2023-02-23T14:59:59.468Z,67.20
2023-02-23T15:02:29.664Z,66.70
2023-02-23T15:04:57.402Z,67.30
2023-02-23T15:07:35.552Z,68.00
2023-02-23T15:10:12.022Z,67.80
2023-02-23T15:12:39.235Z,67.90
2023-02-23T15:15:23.451Z,68.10
2023-02-23T15:17:53.428Z,67.20
2023-02-23T15:20:32.843Z,66.40
2023-02-23T15:23:03.612Z,67.20
2023-02-23T15:25:40.976Z,67.40
2023-02-23T15:28:26.736Z,67.50
2023-02-23T15:31:01.115Z,67.80
2023-02-23T15:33:31.014Z,66.80
2023-02-23T15:36:14.720Z,66.10
2023-02-23T15:38:46.173Z,66.00
2023-02-23T15:41:34.848Z,68.00
2023-02-23T15:44:20.722Z,69.40
2023-02-23T15:47:00.698Z,70.70
2023-02-23T15:49:31.884Z,70.90
2023-02-23T15:52:14.999Z,70.70
2023-02-23T15:55:00.124Z,70.40
2023-02-23T15:57:33.433Z,70.80
2023-02-23T16:00:10.602Z,70.60
2023-02-23T16:02:40.001Z,72.50
2023-02-23T16:05:22.262Z,71.60
2023-02-23T16:08:01.270Z,70.90
2023-02-23T16:10:29.797Z,71.20
2023-02-23T16:12:56.834Z,72.80
2023-02-23T16:15:35.508Z,73.60
2023-02-23T16:18:04.744Z,74.20
2023-02-23T16:20:56.078Z,75.20
2023-02-23T16:23:40.350Z,74.90
2023-02-23T16:26:17.415Z,75.50
2023-02-23T16:28:46.416Z,76.50
2023-02-23T16:31:22.420Z,77.40
2023-02-23T16:33:58.731Z,79.20
2023-02-23T16:36:38.806Z,80.30
2023-02-23T16:39:11.513Z,80.50
2023-02-23T16:41:38.752Z,80.40
2023-02-23T16:44:07.810Z,80.90
2023-02-23T16:47:01.553Z,81.80
2023-02-23T16:49:32.615Z,82.70
2023-02-23T16:52:00.327Z,83.30
2023-02-23T16:54:27.695Z,84.40
2023-02-23T16:56:55.611Z,85.70
2023-02-23T16:59:23.457Z,86.90
2023-02-23T17:01:50.840Z,88.40
2023-02-23T17:04:19.738Z,90.00
2023-02-23T17:06:55.708Z,90.70
2023-02-23T17:09:24.303Z,91.30
2023-02-23T17:11:51.230Z,91.90
2023-02-23T17:14:25.249Z,92.10
2023-02-23T17:16:52.480Z,92.50
2023-02-23T17:19:19.369Z,92.70
2023-02-23T17:21:46.690Z,93.10
2023-02-23T17:24:13.604Z,93.40
2023-02-23T17:26:42.161Z,93.70
2023-02-23T17:29:09.322Z,93.90
2023-02-23T17:31:38.067Z,94.10
2023-02-23T17:34:05.797Z,94.20
2023-02-23T17:36:32.823Z,94.40
2023-02-23T17:38:59.857Z,94.50
2023-02-23T17:41:27.289Z,94.90
2023-02-23T17:43:54.594Z,95.30
2023-02-23T17:46:23.911Z,95.60
2023-02-23T17:48:51.048Z,96.10
2023-02-23T17:51:19.513Z,96.30
2023-02-23T17:53:47.140Z,96.40
2023-02-23T17:56:14.117Z,96.50
2023-02-23T17:58:41.788Z,96.40
2023-02-23T18:01:09.007Z,96.60
2023-02-23T18:03:37.586Z,96.50
2023-02-23T18:06:10.241Z,96.90
2023-02-23T18:08:38.648Z,97.10
2023-02-23T18:11:06.068Z,96.90
2023-02-23T18:13:33.835Z,97.00
2023-02-23T18:16:04.431Z,97.10
2023-02-23T18:18:31.658Z,97.30
2023-02-23T18:21:00.606Z,97.70
2023-02-23T18:23:32.566Z,97.60
2023-02-23T18:26:15.024Z,97.70
2023-02-23T18:28:44.486Z,97.90
2023-02-23T18:31:20.942Z,98.10
2023-02-23T18:33:54.917Z,98.20
2023-02-23T18:36:28.732Z,98.20
2023-02-23T18:38:57.652Z,98.50
2023-02-23T18:41:30.778Z,98.70
2023-02-23T18:44:04.397Z,98.80
2023-02-23T18:46:32.150Z,98.90
2023-02-23T18:48:59.239Z,99.00
2023-02-23T18:51:26.292Z,99.10
2023-02-23T18:53:54.212Z,99.10
2023-02-23T18:56:25.219Z,98.90
2023-02-23T18:58:57.933Z,98.90
2023-02-23T19:01:28.156Z,98.90
2023-02-23T19:03:58.345Z,99.10
2023-02-23T19:06:25.662Z,99.20
2023-02-23T19:08:55.492Z,99.20
2023-02-23T19:11:24.970Z,99.20
2023-02-23T19:13:53.897Z,99.40
2023-02-23T19:16:21.971Z,99.60
2023-02-23T19:18:48.954Z,99.80
2023-02-23T19:21:17.314Z,99.90
2023-02-23T19:23:45.207Z,99.90
2023-02-23T19:26:13.007Z,99.90
2023-02-23T19:28:40.034Z,99.90
2023-02-23T19:31:10.208Z,99.90
2023-02-23T19:33:40.166Z,99.90
2023-02-23T19:36:12.651Z,99.90
2023-02-23T19:38:40.445Z,99.90
2023-02-23T19:41:08.697Z,99.90
2023-02-23T19:43:35.742Z,99.90
2023-02-23T19:46:07.456Z,99.90
2023-02-23T19:48:35.228Z,99.90
2023-02-23T19:51:02.930Z,99.90
2023-02-23T19:53:30.554Z,99.90
2023-02-23T19:56:05.985Z,99.90
2023-02-23T19:58:34.216Z,99.90
2023-02-23T20:01:08.861Z,99.90
2023-02-23T20:03:42.202Z,99.90
2023-02-23T20:06:14.050Z,99.90
2023-02-23T20:08:42.449Z,99.90
2023-02-23T20:11:09.653Z,99.90
2023-02-23T20:13:39.094Z,99.90
2023-02-23T20:16:09.292Z,99.90
2023-02-23T20:18:38.604Z,99.90
2023-02-23T20:21:23.568Z,99.90
2023-02-23T20:23:51.396Z,99.90
2023-02-23T20:26:22.175Z,99.90
2023-02-23T20:28:50.526Z,99.90
2023-02-23T20:31:29.501Z,99.90
2023-02-23T20:33:58.840Z,99.90
2023-02-23T20:36:26.441Z,99.90
2023-02-23T20:38:53.774Z,99.90
2023-02-23T20:41:22.659Z,99.90
2023-02-23T20:43:51.612Z,99.90
2023-02-23T20:46:19.844Z,99.90
2023-02-23T20:48:49.337Z,99.90
2023-02-23T20:51:19.422Z,99.90
2023-02-23T20:53:48.208Z,99.90
2023-02-23T20:56:18.144Z,99.90
2023-02-23T20:58:46.125Z,99.90
2023-02-23T21:01:18.183Z,99.90
2023-02-23T21:03:45.396Z,99.90
2023-02-23T21:06:12.512Z,99.90
2023-02-23T21:08:42.270Z,99.90
2023-02-23T21:11:09.199Z,99.90
2023-02-23T21:13:37.019Z,99.90
2023-02-23T21:16:04.060Z,99.90
2023-02-23T21:18:31.970Z,99.90
2023-02-23T21:21:09.797Z,99.90
2023-02-23T21:23:38.627Z,99.90
2023-02-23T21:26:09.842Z,99.90
2023-02-23T21:28:37.774Z,99.90
2023-02-23T21:31:05.254Z,99.90
2023-02-23T21:33:32.334Z,99.90
2023-02-23T21:35:59.791Z,99.90
2023-02-23T21:38:26.786Z,99.90
2023-02-23T21:40:53.851Z,99.90
2023-02-23T21:43:23.277Z,99.90
2023-02-23T21:45:50.371Z,99.90
2023-02-23T21:48:17.518Z,99.90
2023-02-23T21:50:44.727Z,99.90
2023-02-23T21:53:12.787Z,99.90
2023-02-23T21:55:40.118Z,99.90
2023-02-23T21:58:07.618Z,99.90
2023-02-23T22:00:39.380Z,99.90
2023-02-23T22:03:08.225Z,99.90
2023-02-23T22:05:35.634Z,99.90
2023-02-23T22:08:02.656Z,99.90
2023-02-23T22:10:31.244Z,99.90
2023-02-23T22:13:00.184Z,99.90
2023-02-23T22:15:27.751Z,99.90
2023-02-23T22:17:55.775Z,99.90
2023-02-23T22:20:22.913Z,99.90
2023-02-23T22:22:52.765Z,99.90
2023-02-23T22:25:20.739Z,99.90
2023-02-23T22:27:47.993Z,99.90
2023-02-23T22:30:15.568Z,99.90
2023-02-23T22:32:43.241Z,99.90
2023-02-23T22:35:11.380Z,99.90
2023-02-23T22:37:39.316Z,99.90
2023-02-23T22:40:13.377Z,99.90
2023-02-23T22:42:43.455Z,99.90
2023-02-23T22:45:11.462Z,99.90
2023-02-23T22:47:38.987Z,99.90
2023-02-23T22:50:07.076Z,99.90
2023-02-23T22:52:34.763Z,99.90
2023-02-23T22:55:03.425Z,99.90
2023-02-23T22:57:30.610Z,99.90
2023-02-23T23:00:00.984Z,99.90
2023-02-23T23:02:32.326Z,99.90
2023-02-23T23:05:01.962Z,99.90
2023-02-23T23:07:31.121Z,99.90
2023-02-23T23:09:58.869Z,99.90
2023-02-23T23:12:28.201Z,99.90
2023-02-23T23:14:56.660Z,99.90
2023-02-23T23:17:23.763Z,99.90
2023-02-23T23:19:50.827Z,99.90
2023-02-23T23:22:17.865Z,99.90
2023-02-23T23:24:49.117Z,99.90
2023-02-23T23:27:16.148Z,99.90
2023-02-23T23:29:46.681Z,99.90
2023-02-23T23:32:18.914Z,99.90
2023-02-23T23:34:48.252Z,99.90
2023-02-23T23:37:17.805Z,99.90
2023-02-23T23:39:44.913Z,99.90
2023-02-23T23:42:12.965Z,99.90
2023-02-23T23:44:39.827Z,99.90
2023-02-23T23:47:06.980Z,99.90
2023-02-23T23:49:38.012Z,99.90
2023-02-23T23:52:06.198Z,99.90
2023-02-23T23:54:39.476Z,99.90
2023-02-23T23:57:07.345Z,99.90
2023-02-23T23:59:35.698Z,99.90
